Lisle, New York
Current Conditions -  °F | °C
As of 3:53 AM on Sunday 26 Oct 2014 (Local Time) from KBGM Reporting Station
Clear Clear  
Wind Chill: 39°   Ceiling: Unl
Heat Index: 44°   Visibility: 10mi
Dew Point: 39°   Wind: 10mph
Humidity: 82%   Direction: 270°W
Pressure: 29.59"   Gusts: NA
Location:  42.35°N, 76°W
Report Text: KBGM 260753Z AUTO 27009KT 10SM CLR 07/04 A2959 RMK AO2 SLP021 T00670039
Loading
Personal Weather Stations






























Interactive Weather Map New forecast layout! Learn more

10-Day Weather Forecast

Advertisements
Track Severe Weather on mobile